Time;durP1;ratioP1;P1;durP2;ratioP2;P2;SDS_P1;SDS_P2;PMS_P1;PMS_P2;Temp;Humidity;BMP_temperature;BMP_pressure;BME280_temperature;BME280_humidity;BME280_pressure;Samples;Min_cycle;Max_cycle;Signal;HPM_P1;HPM_P2
2021/03/26 00:02:05;;;;;;;16.73;12.17;;;6.80;51.10;;;;;;5029972;28;38038;-85
2021/03/26 00:04:32;;;;;;;17.33;11.77;;;6.80;51.20;;;;;;5040342;28;38564;-84
2021/03/26 00:06:59;;;;;;;18.10;12.90;;;6.70;51.30;;;;;;5054029;28;38425;-84
2021/03/26 00:09:29;;;;;;;20.27;12.40;;;6.70;51.50;;;;;;5054491;28;39910;-85
2021/03/26 00:11:59;;;;;;;16.83;11.80;;;6.60;51.50;;;;;;5027472;28;38786;-84
2021/03/26 00:14:27;;;;;;;17.50;11.63;;;6.60;51.50;;;;;;5057338;28;39551;-83
2021/03/26 00:16:54;;;;;;;18.43;12.90;;;6.60;51.80;;;;;;5040296;28;37118;-84
2021/03/26 00:19:21;;;;;;;17.23;11.10;;;6.60;51.50;;;;;;5057841;28;41165;-84
2021/03/26 00:21:48;;;;;;;15.47;11.17;;;6.70;51.60;;;;;;5058010;28;40577;-84
2021/03/26 00:24:15;;;;;;;14.57;10.13;;;6.70;51.50;;;;;;5050387;28;38309;-84
2021/03/26 00:26:42;;;;;;;18.50;11.73;;;6.60;51.80;;;;;;5035307;28;36351;-85
2021/03/26 00:29:11;;;;;;;16.83;12.00;;;6.60;52.00;;;;;;5038818;28;39625;-85
2021/03/26 00:31:40;;;;;;;14.30;11.20;;;6.60;51.70;;;;;;5039018;28;39161;-85
2021/03/26 00:34:08;;;;;;;17.43;11.27;;;6.60;51.80;;;;;;5020920;28;36716;-85
2021/03/26 00:36:36;;;;;;;14.80;11.60;;;6.70;51.90;;;;;;5037276;28;36232;-84
2021/03/26 00:39:05;;;;;;;16.13;11.50;;;6.60;51.80;;;;;;5033317;28;39807;-84
2021/03/26 00:41:32;;;;;;;17.97;12.10;;;6.60;51.70;;;;;;5028991;28;39955;-84
2021/03/26 00:43:59;;;;;;;18.23;11.77;;;6.70;51.60;;;;;;5033235;28;38188;-83
2021/03/26 00:46:27;;;;;;;19.90;12.20;;;6.80;51.70;;;;;;5030919;28;38233;-85
2021/03/26 00:48:57;;;;;;;19.80;12.60;;;6.80;51.70;;;;;;5026578;28;38355;-84
2021/03/26 00:51:24;;;;;;;15.10;11.13;;;6.80;51.70;;;;;;5014585;28;39084;-85
2021/03/26 00:53:51;;;;;;;19.90;12.83;;;6.80;51.60;;;;;;5013774;28;37236;-86
2021/03/26 00:56:18;;;;;;;21.27;12.20;;;6.70;51.60;;;;;;5029987;28;36357;-86
2021/03/26 00:58:45;;;;;;;16.10;11.50;;;6.70;51.40;;;;;;5022649;28;38719;-83
2021/03/26 01:01:12;;;;;;;18.80;11.37;;;6.70;51.20;;;;;;5030299;28;37917;-84
2021/03/26 01:03:40;;;;;;;19.10;11.47;;;6.70;51.20;;;;;;5032360;28;38103;-84
2021/03/26 01:06:09;;;;;;;16.60;10.23;;;6.60;51.40;;;;;;5029185;28;36381;-84
2021/03/26 01:08:39;;;;;;;12.47;10.23;;;6.60;51.30;;;;;;5014477;28;38502;-87
2021/03/26 01:11:15;;;;;;;14.67;10.07;;;6.70;51.20;;;;;;5030094;28;39268;-84
2021/03/26 01:13:43;;;;;;;19.20;10.20;;;6.60;51.10;;;;;;5019382;28;37734;-85
2021/03/26 01:16:14;;;;;;;15.67;10.73;;;6.60;51.00;;;;;;5048900;28;36126;-84
2021/03/26 01:18:45;;;;;;;15.67;10.53;;;6.60;51.10;;;;;;5030813;28;39898;-85
2021/03/26 01:21:20;;;;;;;18.70;10.80;;;6.60;51.00;;;;;;5043196;28;37769;-83
2021/03/26 01:23:49;;;;;;;16.57;11.23;;;6.60;51.30;;;;;;5050286;28;36917;-82
2021/03/26 01:26:16;;;;;;;14.90;9.77;;;6.70;51.30;;;;;;5033942;28;37129;-83
2021/03/26 01:29:05;;;;;;;14.90;9.60;;;6.60;51.50;;;;;;5027131;28;39029;-83
2021/03/26 01:31:44;;;;;;;14.07;9.90;;;6.60;51.50;;;;;;5024522;28;37148;-84
2021/03/26 01:34:11;;;;;;;11.97;9.60;;;6.60;51.50;;;;;;5015848;28;36919;-82
2021/03/26 01:36:46;;;;;;;12.33;9.63;;;6.50;51.40;;;;;;5015475;28;35654;-85
2021/03/26 01:39:17;;;;;;;13.03;9.80;;;6.50;51.40;;;;;;5019023;28;40495;-79
2021/03/26 01:41:49;;;;;;;11.23;9.40;;;6.50;51.40;;;;;;5021255;28;39013;-80
2021/03/26 01:44:26;;;;;;;14.13;9.40;;;6.60;51.50;;;;;;5005393;28;37070;-80
2021/03/26 01:46:59;;;;;;;12.90;9.10;;;6.80;51.20;;;;;;5022692;28;35876;-87
2021/03/26 01:49:28;;;;;;;15.43;10.47;;;6.80;50.90;;;;;;5041703;28;39871;-88
2021/03/26 01:52:00;;;;;;;14.10;9.07;;;6.90;50.70;;;;;;5023426;28;38730;-88
2021/03/26 01:54:28;;;;;;;14.30;10.30;;;7.00;50.50;;;;;;5037515;28;38299;-89
2021/03/26 01:56:56;;;;;;;12.97;9.90;;;6.90;50.20;;;;;;5021315;28;35879;-87
2021/03/26 01:59:35;;;;;;;14.40;9.60;;;6.90;50.30;;;;;;5023246;28;39073;-86
2021/03/26 02:02:09;;;;;;;14.97;9.63;;;6.90;50.50;;;;;;5031646;28;38549;-87
2021/03/26 02:05:15;;;;;;;13.67;10.57;;;6.90;50.60;;;;;;4997388;28;38369;-89
2021/03/26 02:07:49;;;;;;;12.97;10.10;;;6.90;50.70;;;;;;5016984;28;35824;-87
2021/03/26 02:10:22;;;;;;;17.50;10.20;;;7.00;50.90;;;;;;5020543;28;39736;-88
2021/03/26 02:12:57;;;;;;;13.93;10.13;;;7.00;50.60;;;;;;5035134;28;37874;-87
2021/03/26 02:15:30;;;;;;;15.07;10.73;;;7.10;50.60;;;;;;5037145;28;38392;-88
2021/03/26 02:18:00;;;;;;;15.03;10.33;;;7.20;50.60;;;;;;5040580;28;37816;-88
2021/03/26 02:20:41;;;;;;;12.80;9.13;;;7.20;50.30;;;;;;5039058;28;39302;-86
2021/03/26 02:23:23;;;;;;;16.40;10.57;;;7.20;49.90;;;;;;5020782;28;38668;-87
2021/03/26 02:26:02;;;;;;;15.70;10.83;;;7.10;49.90;;;;;;5031360;28;37096;-88
2021/03/26 02:28:30;;;;;;;13.80;10.57;;;7.00;50.00;;;;;;5041568;28;36615;-87
2021/03/26 02:31:18;;;;;;;14.80;9.70;;;6.90;49.70;;;;;;5059967;28;39968;-87
2021/03/26 02:33:46;;;;;;;12.93;10.23;;;6.90;49.90;;;;;;5043022;28;39057;-87
2021/03/26 02:36:36;;;;;;;16.53;11.40;;;6.80;49.70;;;;;;5033195;28;38254;-87
2021/03/26 02:39:13;;;;;;;13.60;10.60;;;6.80;50.00;;;;;;5053481;28;38957;-87
2021/03/26 02:41:48;;;;;;;14.67;10.27;;;6.60;50.10;;;;;;5059612;28;39666;-87
2021/03/26 02:45:00;;;;;;;13.40;10.10;;;6.50;50.30;;;;;;5041942;28;40388;-86
2021/03/26 02:47:57;;;;;;;16.90;10.67;;;6.40;50.50;;;;;;5048840;28;38175;-86
2021/03/26 02:50:52;;;;;;;13.90;10.10;;;6.50;50.90;;;;;;5042894;28;36149;-87
2021/03/26 02:53:43;;;;;;;15.33;10.70;;;6.50;50.80;;;;;;5055332;28;39603;-88
2021/03/26 02:56:17;;;;;;;16.57;11.50;;;6.60;50.90;;;;;;5052199;28;37938;-87
2021/03/26 02:58:53;;;;;;;14.03;10.40;;;6.60;50.60;;;;;;5052477;28;38255;-87
2021/03/26 03:01:29;;;;;;;16.67;10.07;;;6.50;50.60;;;;;;5058583;28;38802;-86
2021/03/26 03:04:05;;;;;;;19.40;10.73;;;6.50;50.50;;;;;;5046757;28;41034;-89
2021/03/26 03:06:37;;;;;;;13.67;9.90;;;6.50;50.60;;;;;;5056497;28;40788;-87
2021/03/26 03:09:28;;;;;;;16.57;10.50;;;6.40;50.70;;;;;;5031615;28;38848;-86
2021/03/26 03:12:02;;;;;;;16.50;10.43;;;6.30;50.90;;;;;;5043848;28;36309;-86
2021/03/26 03:14:38;;;;;;;16.80;11.20;;;6.30;51.20;;;;;;5050322;28;41068;-87
2021/03/26 03:17:14;;;;;;;19.23;11.53;;;6.30;51.30;;;;;;5030946;28;39530;-86
2021/03/26 03:19:53;;;;;;;15.50;10.90;;;6.20;51.10;;;;;;5029229;28;38123;-86
2021/03/26 03:22:27;;;;;;;18.43;11.00;;;6.10;51.50;;;;;;5025784;28;36473;-87
2021/03/26 03:24:58;;;;;;;15.90;11.30;;;6.00;52.00;;;;;;5037803;28;39762;-87
2021/03/26 03:27:37;;;;;;;18.80;12.27;;;6.00;52.30;;;;;;5022727;28;38578;-88
2021/03/26 03:30:15;;;;;;;15.70;10.93;;;5.90;52.40;;;;;;5035030;28;36809;-87
2021/03/26 03:32:58;;;;;;;17.90;11.40;;;5.80;52.70;;;;;;5017208;28;36432;-88
2021/03/26 03:35:37;;;;;;;15.47;11.00;;;5.80;53.00;;;;;;5020713;28;38181;-87
2021/03/26 03:38:20;;;;;;;16.33;12.07;;;5.80;53.10;;;;;;5032902;28;37716;-86
2021/03/26 03:40:54;;;;;;;18.70;12.13;;;5.70;53.60;;;;;;5041682;28;38478;-87
2021/03/26 03:43:34;;;;;;;14.93;11.27;;;5.60;53.50;;;;;;5027096;28;36550;-87
2021/03/26 03:46:08;;;;;;;13.20;10.67;;;5.60;53.60;;;;;;5017614;28;41255;-87
2021/03/26 03:49:17;;;;;;;16.90;11.13;;;5.50;53.60;;;;;;4957851;28;39420;-88
2021/03/26 03:51:52;;;;;;;19.07;12.17;;;5.50;53.90;;;;;;5022827;28;37953;-89
2021/03/26 03:54:24;;;;;;;16.30;11.33;;;5.40;53.90;;;;;;5036251;28;37443;-87
2021/03/26 03:56:57;;;;;;;18.47;12.23;;;5.40;54.40;;;;;;5033314;28;39555;-88
2021/03/26 03:59:35;;;;;;;16.20;11.90;;;5.30;54.60;;;;;;5035906;28;38367;-87
2021/03/26 04:02:14;;;;;;;14.97;11.87;;;5.40;54.70;;;;;;5011598;28;37135;-87
2021/03/26 04:04:48;;;;;;;19.50;12.47;;;5.40;54.70;;;;;;5040577;28;38764;-88
2021/03/26 04:07:21;;;;;;;17.67;11.73;;;5.40;54.70;;;;;;5021616;28;38282;-87
2021/03/26 04:09:52;;;;;;;17.37;11.70;;;5.50;54.80;;;;;;5010472;28;39829;-87
2021/03/26 04:12:26;;;;;;;15.93;12.17;;;5.50;54.70;;;;;;5031020;28;38042;-87
2021/03/26 04:15:02;;;;;;;16.30;12.10;;;5.50;54.80;;;;;;5020190;28;36422;-88
2021/03/26 04:17:42;;;;;;;17.03;12.13;;;5.50;54.50;;;;;;5017792;28;39932;-87
2021/03/26 04:20:39;;;;;;;15.93;11.57;;;5.60;54.80;;;;;;5015541;28;38723;-88
2021/03/26 04:23:19;;;;;;;23.57;11.07;;;5.70;54.70;;;;;;5021279;28;37754;-88
2021/03/26 04:26:06;;;;;;;18.60;11.00;;;5.90;54.90;;;;;;5013784;28;38168;-89
2021/03/26 04:29:09;;;;;;;16.40;11.27;;;6.00;54.50;;;;;;5025582;28;40512;-90
2021/03/26 04:31:53;;;;;;;21.10;12.30;;;6.10;54.50;;;;;;5012189;28;39097;-89
2021/03/26 04:34:25;;;;;;;17.03;12.67;;;6.00;53.40;;;;;;5013919;28;38104;-89
2021/03/26 04:37:02;;;;;;;20.37;12.10;;;6.00;53.40;;;;;;5014710;28;36045;-87
2021/03/26 04:39:49;;;;;;;19.07;12.00;;;6.00;53.40;;;;;;5027739;28;38279;-88
2021/03/26 04:42:26;;;;;;;17.23;13.50;;;6.00;53.20;;;;;;5032563;28;37718;-87
2021/03/26 04:45:02;;;;;;;26.03;13.57;;;5.90;53.00;;;;;;5016460;28;36832;-88
2021/03/26 04:47:53;;;;;;;23.87;12.37;;;5.80;53.20;;;;;;5031286;28;36309;-89
2021/03/26 04:50:32;;;;;;;20.17;12.30;;;5.70;53.40;;;;;;5016740;28;38535;-88
2021/03/26 04:53:09;;;;;;;24.20;12.93;;;5.60;53.60;;;;;;5017765;28;39212;-88
2021/03/26 04:55:42;;;;;;;19.67;12.60;;;5.50;53.80;;;;;;5034434;28;38803;-88
2021/03/26 04:58:33;;;;;;;22.20;12.07;;;5.30;54.00;;;;;;5014731;28;37220;-88
2021/03/26 05:01:23;;;;;;;23.80;12.63;;;5.30;54.50;;;;;;5012457;28;39271;-88
2021/03/26 05:04:06;;;;;;;20.73;12.43;;;5.20;54.60;;;;;;5024546;28;37683;-85
2021/03/26 05:06:41;;;;;;;21.03;12.57;;;5.20;54.60;;;;;;5010488;28;37827;-90
2021/03/26 05:09:16;;;;;;;19.33;12.57;;;5.30;54.60;;;;;;5011908;28;36426;-89
2021/03/26 05:12:10;;;;;;;22.20;15.27;;;5.30;54.80;;;;;;5008557;28;40044;-89
2021/03/26 05:14:42;;;;;;;29.07;14.37;;;5.30;55.50;;;;;;5023147;28;39397;-88
2021/03/26 05:17:16;;;;;;;22.70;12.80;;;5.30;55.20;;;;;;5007408;28;38141;-88
2021/03/26 05:20:31;;;;;;;20.60;13.67;;;5.40;55.00;;;;;;5012769;28;37931;-89
2021/03/26 05:23:24;;;;;;;19.03;11.97;;;5.40;54.80;;;;;;5015282;28;39864;-89
2021/03/26 05:26:11;;;;;;;21.83;13.03;;;5.50;55.00;;;;;;5006970;28;39352;-90
2021/03/26 05:28:48;;;;;;;19.90;14.17;;;5.40;55.00;;;;;;5009918;28;38744;-88
2021/03/26 05:31:41;;;;;;;22.10;12.27;;;5.50;55.30;;;;;;5029912;28;36470;-87
2021/03/26 05:34:18;;;;;;;18.97;13.63;;;5.60;55.30;;;;;;5008272;28;40267;-88
2021/03/26 05:36:56;;;;;;;21.83;14.17;;;5.60;54.90;;;;;;5037698;28;39057;-87
2021/03/26 05:39:46;;;;;;;18.77;13.20;;;5.60;55.00;;;;;;4994006;28;39391;-87
2021/03/26 05:42:43;;;;;;;18.30;13.20;;;5.60;54.90;;;;;;5006608;28;38497;-88
2021/03/26 05:45:44;;;;;;;20.30;13.87;;;5.50;54.80;;;;;;5014157;28;40753;-89
2021/03/26 05:48:39;;;;;;;20.83;13.57;;;5.60;54.80;;;;;;5018860;28;40682;-87
2021/03/26 05:51:44;;;;;;;22.03;13.53;;;5.60;54.50;;;;;;5027689;28;37147;-88
2021/03/26 05:54:25;;;;;;;21.40;14.10;;;5.70;54.50;;;;;;4992318;28;36445;-87
2021/03/26 05:57:29;;;;;;;20.47;12.80;;;5.70;54.40;;;;;;5016840;28;40758;-87
2021/03/26 06:00:28;;;;;;;17.70;12.90;;;5.70;54.20;;;;;;5015802;28;37775;-86
2021/03/26 06:03:52;;;;;;;27.00;13.97;;;5.80;53.80;;;;;;5003919;28;37358;-87
2021/03/26 06:07:08;;;;;;;30.53;12.83;;;6.00;53.70;;;;;;4981049;28;38836;-88
2021/03/26 06:10:32;;;;;;;137.87;17.40;;;6.30;53.50;;;;;;5009697;28;40046;-87
2021/03/26 06:14:03;;;;;;;36.03;14.80;;;6.60;52.80;;;;;;5007221;28;39454;-87
2021/03/26 06:17:13;;;;;;;17.93;11.97;;;7.10;51.90;;;;;;5009964;28;39286;-88
2021/03/26 06:20:22;;;;;;;19.80;13.17;;;7.50;50.10;;;;;;5012793;28;37838;-86
2021/03/26 06:24:04;;;;;;;27.23;13.73;;;7.60;49.60;;;;;;5015350;28;39520;-87
2021/03/26 06:27:00;;;;;;;20.93;12.80;;;7.80;49.50;;;;;;4988443;28;38988;-87
2021/03/26 06:29:39;;;;;;;17.87;12.47;;;7.80;49.30;;;;;;5024081;28;36954;-88
2021/03/26 06:32:58;;;;;;;18.37;12.40;;;7.80;49.20;;;;;;5007716;28;37145;-87
2021/03/26 06:36:05;;;;;;;22.53;13.57;;;8.00;49.00;;;;;;5008799;28;40305;-87
2021/03/26 06:39:30;;;;;;;15.90;10.70;;;8.30;49.80;;;;;;5009005;28;38418;-87
2021/03/26 06:42:30;;;;;;;22.00;13.27;;;9.90;49.50;;;;;;5007403;28;37476;-89
2021/03/26 06:45:21;;;;;;;15.60;11.20;;;12.40;42.40;;;;;;5011708;28;36992;-88
2021/03/26 06:48:03;;;;;;;18.20;11.43;;;14.90;38.80;;;;;;5013752;28;41905;-88
2021/03/26 06:50:56;;;;;;;20.93;12.33;;;17.10;33.60;;;;;;5005532;28;38598;-89
2021/03/26 06:53:34;;;;;;;15.90;10.90;;;19.00;31.00;;;;;;5014569;28;37317;-90
2021/03/26 06:56:50;;;;;;;15.33;12.20;;;20.80;29.20;;;;;;5026972;28;36231;-89
2021/03/26 06:59:33;;;;;;;16.33;12.33;;;22.00;27.30;;;;;;5012105;28;39724;-91
2021/03/26 07:02:34;;;;;;;18.33;13.70;;;23.20;26.30;;;;;;5013156;28;38941;-91
2021/03/26 07:05:17;;;;;;;16.70;12.80;;;23.70;25.20;;;;;;5015547;28;36994;-90
2021/03/26 07:07:59;;;;;;;19.63;14.33;;;24.10;24.10;;;;;;5008806;28;35920;-91
2021/03/26 07:10:41;;;;;;;17.90;13.20;;;24.00;24.40;;;;;;5006471;28;38432;-90
2021/03/26 07:13:50;;;;;;;16.93;13.40;;;24.30;23.90;;;;;;4992223;28;39148;-91
2021/03/26 07:16:55;;;;;;;23.23;12.53;;;24.80;23.40;;;;;;4977601;28;38329;-90
2021/03/26 07:19:45;;;;;;;19.53;13.43;;;25.60;23.20;;;;;;4987101;28;37084;-91
2021/03/26 07:22:33;;;;;;;17.93;13.47;;;26.30;22.30;;;;;;5006108;28;39680;-92
2021/03/26 07:25:23;;;;;;;19.37;14.93;;;26.70;21.40;;;;;;5001392;28;38428;-91
2021/03/26 07:28:05;;;;;;;24.73;14.23;;;27.10;21.20;;;;;;4986988;28;39103;-93
2021/03/26 07:30:46;;;;;;;24.13;14.70;;;27.50;21.10;;;;;;4990615;28;35974;-92
2021/03/26 07:33:25;;;;;;;17.60;14.50;;;28.40;20.70;;;;;;4997165;28;40144;-94
2021/03/26 07:36:12;;;;;;;13.60;12.30;;;29.10;19.70;;;;;;4995933;28;38053;-93
2021/03/26 07:39:11;;;;;;;21.90;13.00;;;30.00;19.00;;;;;;4998460;28;38471;-93
2021/03/26 07:42:00;;;;;;;14.00;12.60;;;30.60;18.20;;;;;;4998709;28;37188;-94
2021/03/26 07:44:55;;;;;;;14.77;12.43;;;31.30;17.80;;;;;;5004234;28;38977;-94
2021/03/26 07:47:40;;;;;;;14.83;12.50;;;31.40;17.20;;;;;;4999826;28;38941;-95
2021/03/26 07:50:47;;;;;;;16.37;14.73;;;31.70;17.10;;;;;;5001472;28;38198;-94
2021/03/26 07:53:26;;;;;;;20.03;12.97;;;32.10;16.70;;;;;;4996423;28;36067;-95
2021/03/26 07:56:06;;;;;;;17.33;13.20;;;32.30;16.40;;;;;;5015743;28;38917;-94
2021/03/26 07:58:54;;;;;;;14.37;13.07;;;32.10;16.10;;;;;;4996434;28;38912;-93
2021/03/26 08:01:44;;;;;;;13.53;12.20;;;32.10;16.10;;;;;;5008571;28;37267;-93
2021/03/26 08:04:19;;;;;;;19.43;13.33;;;32.40;16.00;;;;;;4975932;28;36187;-92
2021/03/26 08:07:25;;;;;;;13.10;11.47;;;33.10;15.60;;;;;;5009351;28;38498;-93
2021/03/26 08:10:14;;;;;;;13.80;12.43;;;33.50;15.10;;;;;;5002882;28;37721;-93
2021/03/26 08:12:53;;;;;;;14.07;12.40;;;33.50;14.60;;;;;;5020797;28;37159;-94
2021/03/26 08:15:36;;;;;;;13.87;12.47;;;33.70;14.60;;;;;;5021681;28;37357;-93
2021/03/26 08:18:21;;;;;;;14.23;12.93;;;33.60;14.30;;;;;;5035612;28;39654;-93
2021/03/26 08:21:01;;;;;;;15.13;12.77;;;33.10;14.40;;;;;;5013953;28;38796;-92
2021/03/26 08:23:43;;;;;;;17.50;12.00;;;33.10;14.90;;;;;;5028463;28;36943;-92
2021/03/26 08:26:29;;;;;;;14.13;12.63;;;33.70;14.50;;;;;;5039600;28;36181;-92
2021/03/26 08:29:16;;;;;;;30.27;13.13;;;34.60;14.10;;;;;;5034481;28;38063;-92
2021/03/26 08:32:02;;;;;;;12.13;11.03;;;35.40;13.70;;;;;;5018244;28;38213;-93
2021/03/26 08:35:02;;;;;;;11.50;10.47;;;36.00;12.90;;;;;;5018616;28;39177;-94
2021/03/26 08:37:37;;;;;;;15.93;12.60;;;35.60;12.70;;;;;;4985640;28;35353;-93
2021/03/26 08:40:09;;;;;;;13.00;11.70;;;35.30;12.50;;;;;;5020183;28;40136;-92
2021/03/26 08:42:41;;;;;;;13.80;12.30;;;35.00;12.80;;;;;;5026464;28;37896;-91
2021/03/26 08:45:28;;;;;;;15.43;12.07;;;35.00;12.60;;;;;;5020421;28;38583;-92
2021/03/26 08:48:19;;;;;;;11.70;10.60;;;34.90;12.60;;;;;;5032279;28;37422;-94
2021/03/26 08:50:57;;;;;;;15.00;12.33;;;35.10;12.40;;;;;;5034155;28;43927;-94
2021/03/26 08:53:40;;;;;;;11.97;10.87;;;34.60;12.70;;;;;;5034358;28;39012;-94
2021/03/26 08:56:31;;;;;;;12.60;11.30;;;34.40;12.90;;;;;;5033768;28;39883;-89
2021/03/26 08:59:22;;;;;;;15.50;11.63;;;35.30;12.50;;;;;;5025831;28;38576;-86
2021/03/26 09:02:22;;;;;;;14.33;10.70;;;36.30;12.10;;;;;;5030086;28;40221;-86
2021/03/26 09:05:17;;;;;;;13.73;11.50;;;37.20;11.60;;;;;;5031390;28;40486;-86
2021/03/26 09:07:59;;;;;;;20.53;18.40;;;37.50;11.60;;;;;;5014439;28;36891;-87
2021/03/26 09:11:22;;;;;;;13.90;10.57;;;37.10;11.20;;;;;;5015573;28;36266;-89
2021/03/26 09:14:05;;;;;;;13.70;11.30;;;37.60;11.10;;;;;;5021220;28;41163;-85
2021/03/26 09:16:37;;;;;;;11.93;10.67;;;37.30;10.90;;;;;;5035154;28;38572;-85
2021/03/26 09:19:10;;;;;;;13.70;10.17;;;37.60;10.80;;;;;;5036239;28;37020;-87
2021/03/26 09:21:49;;;;;;;17.30;10.87;;;37.70;10.60;;;;;;5012892;28;37614;-89
2021/03/26 09:24:40;;;;;;;17.60;9.97;;;38.30;10.70;;;;;;5014015;28;40537;-87
2021/03/26 09:27:28;;;;;;;11.63;10.53;;;38.80;10.50;;;;;;5016713;28;39004;-87
2021/03/26 09:30:15;;;;;;;12.03;10.43;;;38.40;10.30;;;;;;5017656;28;37134;-88
2021/03/26 09:32:51;;;;;;;11.63;9.57;;;38.30;10.70;;;;;;5007256;28;38682;-86
2021/03/26 09:35:25;;;;;;;10.73;9.70;;;38.30;10.60;;;;;;5028793;28;39819;-86
2021/03/26 09:37:57;;;;;;;11.73;10.53;;;38.20;10.90;;;;;;5012000;28;38975;-85
2021/03/26 09:40:31;;;;;;;25.93;12.90;;;38.10;10.90;;;;;;5009843;28;39122;-85
2021/03/26 09:43:22;;;;;;;16.63;10.60;;;37.60;10.70;;;;;;5034052;28;36933;-86
2021/03/26 09:46:00;;;;;;;16.10;10.40;;;37.70;11.00;;;;;;5009396;28;40605;-85
2021/03/26 09:48:45;;;;;;;18.77;11.03;;;37.70;11.10;;;;;;5012972;28;38980;-86
2021/03/26 09:51:24;;;;;;;15.10;10.90;;;38.10;10.70;;;;;;5011371;28;38259;-88
2021/03/26 09:53:56;;;;;;;14.87;10.67;;;38.60;10.60;;;;;;5023190;28;37994;-85
2021/03/26 09:56:36;;;;;;;11.57;10.47;;;38.30;10.50;;;;;;5036567;28;38583;-84
2021/03/26 09:59:12;;;;;;;15.63;10.97;;;38.00;10.50;;;;;;5010443;28;39549;-86
2021/03/26 10:01:46;;;;;;;13.10;10.30;;;38.00;10.80;;;;;;5015669;28;38117;-87
2021/03/26 10:04:18;;;;;;;21.80;12.30;;;37.60;10.90;;;;;;5006820;28;37151;-86
2021/03/26 10:07:02;;;;;;;11.80;10.70;;;37.20;11.00;;;;;;5009001;28;39364;-86
2021/03/26 10:09:37;;;;;;;13.80;11.20;;;37.30;11.00;;;;;;5013853;28;38639;-86
2021/03/26 10:12:12;;;;;;;10.23;9.07;;;37.40;11.10;;;;;;5031078;28;39025;-85
2021/03/26 10:14:46;;;;;;;10.90;9.40;;;37.70;11.10;;;;;;5037763;28;37626;-85
2021/03/26 10:17:53;;;;;;;13.33;10.33;;;37.60;10.80;;;;;;5035804;28;39700;-86
2021/03/26 10:20:47;;;;;;;11.07;9.97;;;37.30;11.40;;;;;;5024842;28;37823;-86
2021/03/26 10:23:30;;;;;;;11.77;9.70;;;37.30;11.10;;;;;;5019757;28;36617;-85
2021/03/26 10:26:09;;;;;;;12.83;10.00;;;37.70;10.70;;;;;;5041211;28;37557;-86
2021/03/26 10:28:58;;;;;;;16.80;11.33;;;37.20;10.40;;;;;;5039856;28;40794;-85
2021/03/26 10:31:36;;;;;;;12.40;11.10;;;36.60;11.10;;;;;;5029876;28;38126;-85
2021/03/26 10:34:06;;;;;;;19.80;10.10;;;36.50;11.00;;;;;;5038635;28;38026;-87
2021/03/26 10:36:45;;;;;;;11.17;9.87;;;36.40;11.00;;;;;;5016579;28;37357;-87
2021/03/26 10:39:16;;;;;;;10.77;9.70;;;35.30;11.20;;;;;;5042490;28;40337;-87
2021/03/26 10:42:08;;;;;;;12.57;9.60;;;35.40;11.30;;;;;;5038173;28;39791;-87
2021/03/26 10:45:01;;;;;;;12.27;9.60;;;35.50;12.00;;;;;;5039745;28;38707;-87
2021/03/26 10:47:33;;;;;;;11.53;10.20;;;35.40;11.90;;;;;;5022428;28;35971;-86
2021/03/26 10:50:05;;;;;;;13.23;9.90;;;35.50;11.40;;;;;;5032682;28;38501;-86
2021/03/26 10:52:39;;;;;;;21.70;10.50;;;35.20;11.20;;;;;;5042765;28;40000;-86
2021/03/26 10:55:12;;;;;;;10.77;8.87;;;34.60;12.00;;;;;;5037903;28;38880;-86
2021/03/26 10:57:43;;;;;;;11.40;9.37;;;34.10;11.90;;;;;;5046123;28;36721;-87
2021/03/26 11:00:23;;;;;;;31.00;11.10;;;33.60;12.30;;;;;;5038550;28;40953;-87
2021/03/26 11:03:10;;;;;;;16.47;10.70;;;33.30;12.30;;;;;;5037017;28;39317;-85
2021/03/26 11:05:46;;;;;;;14.40;9.10;;;32.60;12.80;;;;;;5017789;28;36850;-88
2021/03/26 11:08:37;;;;;;;10.83;9.73;;;32.50;12.80;;;;;;5033349;28;37127;-88
2021/03/26 11:11:23;;;;;;;10.67;9.20;;;32.00;12.70;;;;;;5015777;28;38131;-88
2021/03/26 11:14:18;;;;;;;10.63;8.67;;;31.40;13.30;;;;;;5033097;28;38773;-86
2021/03/26 11:16:50;;;;;;;14.00;8.40;;;30.90;13.70;;;;;;5036797;28;36621;-87
2021/03/26 11:19:26;;;;;;;10.57;8.40;;;30.10;14.10;;;;;;5034860;28;36845;-86
2021/03/26 11:22:01;;;;;;;9.50;7.10;;;29.20;14.90;;;;;;5013678;28;38622;-87
2021/03/26 11:24:40;;;;;;;8.67;7.77;;;28.90;15.30;;;;;;5024493;28;39235;-86
2021/03/26 11:27:17;;;;;;;9.63;8.00;;;28.30;15.00;;;;;;5025255;28;38091;-86
2021/03/26 11:29:48;;;;;;;24.40;9.53;;;27.80;15.50;;;;;;5008517;28;37093;-86
2021/03/26 11:32:22;;;;;;;12.30;7.73;;;26.80;16.10;;;;;;5030628;28;38576;-86
2021/03/26 11:34:57;;;;;;;12.37;7.60;;;26.10;16.80;;;;;;5030029;28;39361;-87
2021/03/26 11:37:32;;;;;;;11.43;7.80;;;25.60;17.20;;;;;;5010265;28;36715;-86
2021/03/26 11:40:07;;;;;;;9.13;7.00;;;24.80;17.90;;;;;;5030566;28;37094;-86
2021/03/26 11:42:49;;;;;;;19.50;7.50;;;24.40;18.00;;;;;;5015148;28;38649;-87
2021/03/26 11:45:37;;;;;;;8.40;6.87;;;24.10;18.60;;;;;;5029519;28;38681;-87
2021/03/26 11:48:34;;;;;;;12.00;6.67;;;23.60;18.50;;;;;;5014786;28;36667;-87
2021/03/26 11:51:11;;;;;;;10.50;6.77;;;23.20;19.40;;;;;;5021686;28;37459;-88
2021/03/26 11:53:49;;;;;;;8.00;6.43;;;22.80;19.20;;;;;;5015871;28;39329;-88
2021/03/26 11:56:28;;;;;;;11.63;6.47;;;22.60;19.50;;;;;;5015836;28;39172;-87
2021/03/26 11:59:09;;;;;;;23.23;7.17;;;22.30;19.80;;;;;;5033894;28;36831;-86
2021/03/26 12:01:47;;;;;;;37.20;8.77;;;22.20;19.60;;;;;;5028599;28;36991;-85
2021/03/26 12:04:20;;;;;;;10.43;6.07;;;21.90;20.40;;;;;;5017457;28;39450;-85
2021/03/26 12:06:53;;;;;;;13.67;7.00;;;21.60;19.80;;;;;;5035921;28;37729;-86
2021/03/26 12:09:32;;;;;;;11.63;7.33;;;21.40;20.50;;;;;;5030369;28;38233;-86
2021/03/26 12:12:12;;;;;;;13.10;6.43;;;21.30;20.40;;;;;;5015563;28;36153;-86
2021/03/26 12:14:49;;;;;;;6.40;4.93;;;21.30;20.40;;;;;;5033833;28;39542;-86
2021/03/26 12:17:36;;;;;;;8.30;5.40;;;21.20;20.30;;;;;;5012424;28;38681;-86
2021/03/26 12:20:11;;;;;;;8.47;5.10;;;21.00;20.90;;;;;;5026246;28;39081;-87
2021/03/26 12:22:47;;;;;;;12.23;5.70;;;21.00;20.70;;;;;;5017020;28;35966;-86
2021/03/26 12:25:23;;;;;;;6.80;5.00;;;21.00;20.60;;;;;;5013883;28;38551;-86
2021/03/26 12:27:53;;;;;;;15.33;5.40;;;21.10;20.50;;;;;;5031632;28;37669;-86
2021/03/26 12:30:25;;;;;;;13.13;5.47;;;21.40;20.60;;;;;;5013262;28;37057;-88
2021/03/26 12:32:59;;;;;;;6.00;4.90;;;21.30;20.50;;;;;;5029072;28;36175;-89
2021/03/26 12:35:29;;;;;;;7.47;5.33;;;21.30;20.40;;;;;;5026805;28;38348;-87
2021/03/26 12:38:08;;;;;;;10.73;5.13;;;21.10;20.20;;;;;;5014955;28;38039;-85
2021/03/26 12:40:58;;;;;;;6.30;4.73;;;21.10;20.00;;;;;;5029589;28;38376;-85
2021/03/26 12:43:36;;;;;;;11.00;5.40;;;21.20;20.30;;;;;;5022414;28;37842;-85
2021/03/26 12:46:08;;;;;;;9.23;5.03;;;21.20;20.30;;;;;;5007324;28;39148;-85
2021/03/26 12:48:39;;;;;;;7.30;4.57;;;21.20;20.50;;;;;;5014053;28;37692;-86
2021/03/26 12:51:15;;;;;;;14.60;5.30;;;21.40;20.80;;;;;;5030845;28;36836;-86
2021/03/26 12:53:50;;;;;;;13.20;4.37;;;21.60;20.60;;;;;;5027643;28;37116;-86
2021/03/26 12:56:26;;;;;;;10.20;5.67;;;21.70;20.00;;;;;;5025666;28;39426;-85
2021/03/26 12:59:16;;;;;;;12.70;5.77;;;21.70;20.60;;;;;;5028510;28;38983;-87
2021/03/26 13:01:50;;;;;;;11.47;5.70;;;21.80;20.70;;;;;;5021667;28;36854;-87
2021/03/26 13:04:37;;;;;;;7.70;5.20;;;21.80;20.70;;;;;;5030197;28;37801;-86
2021/03/26 13:07:18;;;;;;;7.53;4.87;;;21.80;20.70;;;;;;5030302;28;39844;-85
2021/03/26 13:09:53;;;;;;;5.17;4.60;;;21.90;20.50;;;;;;5012183;28;39099;-85
2021/03/26 13:12:26;;;;;;;16.03;5.53;;;22.00;20.10;;;;;;5024839;28;38900;-85
2021/03/26 13:14:58;;;;;;;9.67;5.17;;;22.10;20.90;;;;;;5035957;28;36865;-83
2021/03/26 13:17:28;;;;;;;9.10;5.83;;;22.10;20.90;;;;;;5024899;28;40210;-84
2021/03/26 13:20:04;;;;;;;14.17;5.60;;;21.90;20.30;;;;;;5026262;28;39948;-85
2021/03/26 13:22:36;;;;;;;12.30;5.60;;;21.90;20.80;;;;;;5024004;28;38676;-86
2021/03/26 13:25:16;;;;;;;9.60;5.13;;;21.80;20.70;;;;;;5025045;28;38244;-85
2021/03/26 13:27:48;;;;;;;14.37;7.37;;;21.70;20.60;;;;;;5024234;28;39376;-85
2021/03/26 13:30:32;;;;;;;28.07;7.10;;;21.40;20.40;;;;;;5013030;28;38001;-84
2021/03/26 13:33:34;;;;;;;22.63;6.47;;;21.30;21.00;;;;;;5023402;28;37459;-86
2021/03/26 13:36:07;;;;;;;11.23;6.10;;;21.40;21.40;;;;;;5029006;28;36953;-84
2021/03/26 13:38:59;;;;;;;5.50;4.50;;;21.30;21.00;;;;;;5028418;28;40219;-85
2021/03/26 13:41:49;;;;;;;17.23;5.80;;;21.30;20.70;;;;;;5027561;28;38825;-85
2021/03/26 13:44:50;;;;;;;6.60;4.20;;;21.10;20.70;;;;;;5030933;28;37489;-85
2021/03/26 13:47:28;;;;;;;18.80;5.20;;;21.00;20.60;;;;;;5006650;28;37140;-85
2021/03/26 13:50:07;;;;;;;8.30;4.80;;;20.90;20.90;;;;;;5034313;28;38326;-85